createdAt,value
2018-05-31T00:01:55.290Z,13.10
2018-05-31T00:04:22.858Z,9.70
2018-05-31T00:06:50.407Z,12.47
2018-05-31T00:09:17.984Z,15.47
2018-05-31T00:11:45.535Z,15.20
2018-05-31T00:14:13.097Z,8.73
2018-05-31T00:16:40.653Z,14.07
2018-05-31T00:19:08.235Z,9.43
2018-05-31T00:21:35.784Z,12.30
2018-05-31T00:24:04.182Z,14.27
2018-05-31T00:29:24.860Z,17.17
2018-05-31T00:31:52.397Z,17.83
2018-05-31T00:34:19.958Z,17.53
2018-05-31T00:36:47.498Z,17.50
2018-05-31T00:39:15.044Z,16.17
2018-05-31T00:41:43.394Z,12.27
2018-05-31T00:44:10.951Z,14.00
2018-05-31T00:46:38.481Z,18.03
2018-05-31T00:49:06.044Z,11.67
2018-05-31T00:51:33.596Z,11.73
2018-05-31T00:54:01.166Z,12.27
2018-05-31T00:56:28.701Z,15.00
2018-05-31T00:58:56.244Z,16.27
2018-05-31T01:01:23.791Z,15.53
2018-05-31T01:03:52.129Z,12.93
2018-05-31T01:06:19.669Z,9.10
2018-05-31T01:08:47.246Z,9.93
2018-05-31T01:11:14.789Z,13.23
2018-05-31T01:13:42.337Z,13.30
2018-05-31T01:16:09.872Z,13.20
2018-05-31T01:18:37.422Z,14.53
2018-05-31T01:21:05.729Z,13.80
2018-05-31T01:23:33.282Z,14.03
2018-05-31T01:26:00.820Z,13.63
2018-05-31T01:28:28.373Z,18.83
2018-05-31T01:30:56.681Z,11.30
2018-05-31T01:33:24.243Z,18.13
2018-05-31T01:35:51.830Z,17.53
2018-05-31T01:38:31.079Z,15.40
2018-05-31T01:40:58.632Z,13.43
2018-05-31T01:43:26.963Z,16.87
2018-05-31T01:45:54.525Z,14.37
2018-05-31T01:48:22.095Z,10.93
2018-05-31T01:50:49.620Z,14.10
2018-05-31T01:53:17.169Z,19.37
2018-05-31T01:55:45.481Z,14.10
2018-05-31T01:58:13.038Z,17.93
2018-05-31T02:00:41.030Z,17.80
2018-05-31T02:03:08.564Z,15.00
2018-05-31T02:05:36.101Z,16.47
2018-05-31T02:08:03.661Z,19.73
2018-05-31T02:10:31.198Z,19.57
2018-05-31T02:12:58.735Z,19.53
2018-05-31T02:15:26.298Z,22.73
2018-05-31T02:17:53.852Z,19.07
2018-05-31T02:20:21.393Z,14.77
2018-05-31T02:22:48.937Z,16.63
2018-05-31T02:25:16.465Z,20.73
2018-05-31T02:27:44.037Z,16.63
2018-05-31T02:30:11.574Z,16.27
2018-05-31T02:32:39.900Z,16.17
2018-05-31T02:35:07.443Z,23.70
2018-05-31T02:37:34.998Z,20.80
2018-05-31T02:40:02.540Z,20.97
2018-05-31T02:42:30.081Z,21.27
2018-05-31T02:44:58.401Z,20.53
2018-05-31T02:47:25.937Z,22.70
2018-05-31T02:49:53.488Z,28.93
2018-05-31T02:52:21.031Z,25.23
2018-05-31T02:54:49.339Z,21.87
2018-05-31T02:57:16.867Z,20.13
2018-05-31T02:59:45.217Z,32.60
2018-05-31T03:02:12.770Z,22.10
2018-05-31T03:04:40.326Z,28.43
2018-05-31T03:07:09.072Z,25.50
2018-05-31T03:09:36.654Z,25.63
2018-05-31T03:12:04.181Z,30.23
2018-05-31T03:14:31.744Z,27.13
2018-05-31T03:16:59.284Z,21.37
2018-05-31T03:19:27.605Z,27.13
2018-05-31T03:21:55.160Z,24.90
2018-05-31T03:24:22.701Z,24.70
2018-05-31T03:26:50.243Z,17.90
2018-05-31T03:29:18.554Z,20.47
2018-05-31T03:31:46.104Z,20.60
2018-05-31T03:34:13.658Z,26.23
2018-05-31T03:36:41.201Z,20.70
2018-05-31T03:39:08.750Z,30.43
2018-05-31T03:41:37.062Z,37.53
2018-05-31T03:44:04.722Z,23.27
2018-05-31T03:46:32.286Z,31.37
2018-05-31T03:48:59.841Z,29.27
2018-05-31T03:51:27.387Z,27.50
2018-05-31T03:53:54.952Z,30.93
2018-05-31T03:56:22.486Z,29.97
2018-05-31T03:58:50.058Z,31.37
2018-05-31T04:01:17.590Z,32.97
2018-05-31T04:03:45.197Z,30.80
2018-05-31T04:06:12.748Z,28.67
2018-05-31T04:08:40.315Z,26.57
2018-05-31T04:11:10.908Z,19.50
2018-05-31T04:13:39.226Z,27.80
2018-05-31T04:16:06.776Z,26.60
2018-05-31T04:18:34.315Z,40.57
2018-05-31T04:21:01.864Z,31.00
2018-05-31T04:23:30.176Z,35.97
2018-05-31T04:25:57.728Z,31.27
2018-05-31T04:28:25.268Z,29.27
2018-05-31T04:30:52.834Z,28.23
2018-05-31T04:33:20.401Z,24.20
2018-05-31T04:35:47.936Z,25.27
2018-05-31T04:38:15.475Z,33.40
2018-05-31T04:40:43.774Z,32.77
2018-05-31T04:43:11.336Z,36.03
2018-05-31T04:45:38.870Z,42.17
2018-05-31T04:48:07.184Z,41.30
2018-05-31T04:50:34.763Z,32.33
2018-05-31T04:53:02.304Z,29.90
2018-05-31T04:55:29.885Z,33.37
2018-05-31T04:57:57.428Z,30.10
2018-05-31T05:00:25.034Z,26.77
2018-05-31T05:02:52.620Z,36.27
2018-05-31T05:05:20.187Z,37.20
2018-05-31T05:07:47.761Z,28.10
2018-05-31T05:10:15.351Z,30.73
2018-05-31T05:12:42.947Z,24.67
2018-05-31T05:15:11.283Z,27.57
2018-05-31T05:17:38.818Z,31.80
2018-05-31T05:20:10.041Z,28.37
2018-05-31T05:22:37.584Z,28.33
2018-05-31T05:25:06.895Z,26.07
2018-05-31T05:27:34.435Z,32.73
2018-05-31T05:30:02.749Z,26.90
2018-05-31T05:32:30.330Z,21.40
2018-05-31T05:34:57.876Z,27.73
2018-05-31T05:37:25.431Z,31.77
2018-05-31T05:39:52.970Z,32.83
2018-05-31T05:42:21.413Z,16.40
2018-05-31T05:44:49.093Z,15.90
2018-05-31T05:47:17.409Z,15.10
2018-05-31T05:49:44.961Z,11.57
2018-05-31T05:52:12.514Z,10.90
2018-05-31T05:54:50.072Z,12.37
2018-05-31T05:57:17.604Z,14.30
2018-05-31T05:59:45.170Z,11.63
2018-05-31T06:02:12.708Z,12.73
2018-05-31T06:04:40.272Z,16.00
2018-05-31T06:07:07.830Z,18.07
2018-05-31T06:09:35.385Z,13.80
2018-05-31T06:12:02.925Z,10.43
2018-05-31T06:14:30.470Z,11.30
2018-05-31T06:16:58.001Z,11.57
2018-05-31T06:19:25.545Z,10.93
2018-05-31T06:21:54.042Z,13.73
2018-05-31T06:24:22.357Z,14.03
2018-05-31T06:26:49.880Z,10.63
2018-05-31T06:29:18.191Z,9.00
2018-05-31T06:31:45.725Z,11.17
2018-05-31T06:34:13.264Z,9.40
2018-05-31T06:36:40.798Z,10.07
2018-05-31T06:39:08.332Z,8.67
2018-05-31T06:41:35.862Z,8.03
2018-05-31T06:44:03.395Z,8.27
2018-05-31T06:46:30.930Z,7.80
2018-05-31T06:48:58.487Z,6.50
2018-05-31T06:51:26.022Z,6.37
2018-05-31T06:53:53.578Z,9.73
2018-05-31T06:56:22.122Z,6.67
2018-05-31T06:58:50.428Z,8.90
2018-05-31T07:01:17.970Z,7.27
2018-05-31T07:03:45.513Z,6.63
2018-05-31T07:06:13.803Z,6.53
2018-05-31T07:08:41.392Z,7.73
2018-05-31T07:11:09.062Z,9.47
2018-05-31T07:13:36.615Z,8.03
2018-05-31T07:16:04.159Z,6.17
2018-05-31T07:18:31.692Z,6.50
2018-05-31T07:21:02.009Z,5.70
2018-05-31T07:23:30.311Z,8.20
2018-05-31T07:25:57.861Z,6.30
2018-05-31T07:28:25.413Z,6.10
2018-05-31T07:30:52.968Z,7.60
2018-05-31T07:33:21.359Z,6.63
2018-05-31T07:35:48.901Z,5.73
2018-05-31T07:38:17.303Z,6.23
2018-05-31T07:40:44.849Z,5.27
2018-05-31T07:43:19.124Z,5.70
2018-05-31T07:45:46.666Z,6.67
2018-05-31T07:48:14.208Z,4.13
2018-05-31T07:50:41.744Z,5.67
2018-05-31T07:53:09.274Z,6.17
2018-05-31T07:55:36.816Z,5.20
2018-05-31T07:58:04.389Z,3.93
2018-05-31T08:00:31.892Z,5.17
2018-05-31T08:02:59.710Z,4.40
2018-05-31T08:05:27.785Z,5.50
2018-05-31T08:07:58.183Z,6.43
2018-05-31T08:10:25.712Z,5.67
2018-05-31T08:12:53.250Z,6.00
2018-05-31T08:15:20.795Z,3.97
2018-05-31T08:17:49.088Z,3.43
2018-05-31T08:20:16.633Z,4.43
2018-05-31T08:22:44.983Z,4.80
2018-05-31T08:25:12.516Z,4.53
2018-05-31T08:27:40.054Z,5.07
2018-05-31T08:30:07.590Z,4.90
2018-05-31T08:32:35.134Z,3.80
2018-05-31T08:35:03.437Z,4.47
2018-05-31T08:37:30.974Z,6.00
2018-05-31T08:39:59.281Z,4.63
2018-05-31T08:42:26.821Z,5.23
2018-05-31T08:44:54.359Z,4.17
2018-05-31T08:47:22.662Z,4.27
2018-05-31T08:49:50.210Z,4.40
2018-05-31T08:52:17.756Z,4.00
2018-05-31T08:54:46.089Z,5.20
2018-05-31T08:57:13.620Z,3.70
2018-05-31T08:59:41.224Z,5.60
2018-05-31T09:02:08.756Z,3.90
2018-05-31T09:04:36.313Z,4.97
2018-05-31T09:07:03.842Z,3.47
2018-05-31T09:09:31.409Z,4.60
2018-05-31T09:11:58.911Z,4.00
2018-05-31T09:14:26.477Z,4.73
2018-05-31T09:16:54.807Z,4.17
2018-05-31T09:19:22.377Z,3.77
2018-05-31T09:21:49.952Z,3.33
2018-05-31T09:24:17.502Z,2.87
2018-05-31T09:26:45.044Z,2.53
2018-05-31T09:29:12.586Z,3.53
2018-05-31T09:31:40.144Z,3.93
2018-05-31T09:34:07.683Z,5.40
2018-05-31T09:36:36.013Z,2.85
2018-05-31T09:39:03.568Z,2.87
2018-05-31T09:41:31.107Z,4.20
2018-05-31T09:43:58.656Z,3.90
2018-05-31T09:46:26.199Z,4.27
2018-05-31T09:48:54.517Z,4.12
2018-05-31T09:51:22.063Z,3.47
2018-05-31T09:53:49.599Z,3.87
2018-05-31T09:56:17.942Z,4.07
2018-05-31T09:58:45.491Z,4.87
2018-05-31T10:01:18.738Z,5.00
2018-05-31T10:03:48.218Z,5.82
2018-05-31T10:06:16.525Z,5.25
2018-05-31T10:08:44.061Z,3.95
2018-05-31T10:11:12.436Z,3.55
2018-05-31T10:13:40.732Z,3.87
2018-05-31T10:16:08.260Z,4.37
2018-05-31T10:18:35.800Z,4.90
2018-05-31T10:21:03.353Z,3.83
2018-05-31T10:23:30.894Z,4.63
2018-05-31T10:25:58.442Z,3.12
2018-05-31T10:28:26.027Z,6.60
2018-05-31T10:30:53.587Z,4.73
2018-05-31T10:33:21.142Z,5.13
2018-05-31T10:35:48.684Z,4.50
2018-05-31T10:38:16.241Z,4.20
2018-05-31T10:40:43.773Z,3.77
2018-05-31T10:43:11.302Z,4.47
2018-05-31T10:45:38.847Z,4.97
2018-05-31T10:48:07.665Z,5.33
2018-05-31T10:50:35.245Z,5.07
2018-05-31T10:53:02.784Z,3.67
2018-05-31T10:55:31.092Z,3.27
2018-05-31T10:57:58.630Z,3.37
2018-05-31T11:00:26.181Z,4.20
2018-05-31T11:02:54.488Z,6.00
2018-05-31T11:05:22.047Z,4.23
2018-05-31T11:07:49.625Z,3.20
2018-05-31T11:10:17.209Z,3.97
2018-05-31T11:12:44.760Z,4.57
2018-05-31T11:15:12.301Z,4.13
2018-05-31T11:17:39.845Z,3.83
2018-05-31T11:20:07.401Z,4.67
2018-05-31T11:22:34.933Z,3.63
2018-05-31T11:25:08.829Z,6.47
2018-05-31T11:27:37.137Z,3.13
2018-05-31T11:30:04.678Z,3.70
2018-05-31T11:32:32.219Z,5.30
2018-05-31T11:35:00.532Z,5.73
2018-05-31T11:37:30.614Z,5.47
2018-05-31T11:39:58.918Z,3.60
2018-05-31T11:42:28.922Z,3.33
2018-05-31T11:44:56.744Z,2.70
2018-05-31T11:47:24.272Z,3.17
2018-05-31T11:49:51.825Z,3.67
2018-05-31T11:52:19.380Z,4.80
2018-05-31T11:54:46.919Z,4.57
2018-05-31T11:57:15.214Z,4.33
2018-05-31T11:59:42.838Z,2.90
2018-05-31T12:02:21.767Z,3.70
2018-05-31T12:04:50.081Z,2.83
2018-05-31T12:07:17.598Z,2.83
2018-05-31T12:09:45.917Z,4.17
2018-05-31T12:12:13.479Z,4.03
2018-05-31T12:14:40.980Z,2.43
2018-05-31T12:17:08.526Z,4.37
2018-05-31T12:19:36.067Z,4.00
2018-05-31T12:22:03.614Z,3.87
2018-05-31T12:24:31.175Z,2.63
2018-05-31T12:26:58.708Z,3.22
2018-05-31T12:29:26.241Z,3.42
2018-05-31T12:31:54.574Z,4.13
2018-05-31T12:34:22.117Z,3.83
2018-05-31T12:36:49.662Z,5.30
2018-05-31T12:39:17.197Z,2.77
2018-05-31T12:41:45.518Z,2.47
2018-05-31T12:44:13.064Z,3.50
2018-05-31T12:46:40.616Z,4.53
2018-05-31T12:49:08.128Z,4.28
2018-05-31T12:51:38.582Z,3.10
2018-05-31T12:54:06.193Z,4.93
2018-05-31T12:56:33.930Z,2.60
2018-05-31T12:59:01.511Z,2.37
2018-05-31T13:01:29.048Z,4.10
2018-05-31T13:03:56.600Z,3.00
2018-05-31T13:06:24.126Z,3.35
2018-05-31T13:08:52.446Z,3.73
2018-05-31T13:11:20.005Z,3.37
2018-05-31T13:13:47.552Z,5.10
2018-05-31T13:16:15.097Z,3.78
2018-05-31T13:18:42.675Z,3.40
2018-05-31T13:21:10.959Z,4.13
2018-05-31T13:23:59.965Z,2.58
2018-05-31T13:26:27.497Z,2.97
2018-05-31T13:28:55.038Z,3.20
2018-05-31T13:31:22.588Z,2.08
2018-05-31T13:33:50.141Z,2.93
2018-05-31T13:36:17.718Z,3.30
2018-05-31T13:38:45.264Z,6.27
2018-05-31T13:41:12.806Z,2.85
2018-05-31T13:43:40.356Z,2.83
2018-05-31T13:46:18.932Z,2.97
2018-05-31T13:48:46.577Z,4.90
2018-05-31T13:51:14.125Z,3.90
2018-05-31T13:53:41.788Z,2.97
2018-05-31T13:56:09.343Z,5.22
2018-05-31T13:58:36.870Z,3.87
2018-05-31T14:01:04.412Z,4.10
2018-05-31T14:03:31.942Z,3.30
2018-05-31T14:05:59.482Z,2.42
2018-05-31T14:08:27.039Z,3.57
2018-05-31T14:11:00.759Z,2.83
2018-05-31T14:13:28.299Z,3.07
2018-05-31T14:15:55.843Z,3.43
2018-05-31T14:18:25.295Z,5.50
2018-05-31T14:20:53.736Z,4.87
2018-05-31T14:23:21.274Z,2.70
2018-05-31T14:25:48.800Z,4.80
2018-05-31T14:28:17.284Z,3.30
2018-05-31T14:30:44.838Z,3.03
2018-05-31T14:33:12.364Z,3.70
2018-05-31T14:35:39.930Z,3.97
2018-05-31T14:38:07.464Z,3.07
2018-05-31T14:40:35.030Z,3.30
2018-05-31T14:43:04.497Z,2.90
2018-05-31T14:45:32.799Z,3.17
2018-05-31T14:48:00.381Z,2.33
2018-05-31T14:50:33.051Z,2.12
2018-05-31T14:53:04.074Z,4.57
2018-05-31T14:55:31.646Z,3.22
2018-05-31T14:57:59.220Z,4.40
2018-05-31T15:00:26.892Z,3.42
2018-05-31T15:02:54.961Z,3.37
2018-05-31T15:05:22.498Z,4.93
2018-05-31T15:07:50.044Z,3.37
2018-05-31T15:10:17.576Z,4.00
2018-05-31T15:12:45.121Z,4.03
2018-05-31T15:15:13.473Z,3.03
2018-05-31T15:17:41.025Z,3.43
2018-05-31T15:20:08.539Z,4.55
2018-05-31T15:22:36.098Z,2.83
2018-05-31T15:25:03.629Z,3.87
2018-05-31T15:27:31.164Z,5.20
2018-05-31T15:29:58.716Z,3.60
2018-05-31T15:32:26.918Z,4.80
2018-05-31T15:34:55.229Z,5.30
2018-05-31T15:37:22.765Z,4.83
2018-05-31T15:39:50.330Z,4.47
2018-05-31T15:42:17.903Z,4.47
2018-05-31T15:44:45.436Z,4.97
2018-05-31T15:47:13.768Z,3.30
2018-05-31T15:49:41.308Z,4.10
2018-05-31T15:52:13.186Z,4.25
2018-05-31T15:54:41.641Z,2.60
2018-05-31T15:57:10.516Z,2.87
2018-05-31T15:59:38.046Z,3.93
2018-05-31T16:02:10.461Z,2.78
2018-05-31T16:04:37.979Z,3.35
2018-05-31T16:07:06.287Z,3.15
2018-05-31T16:09:33.815Z,4.12
2018-05-31T16:12:02.119Z,3.97
2018-05-31T16:14:29.723Z,4.55
2018-05-31T16:16:58.871Z,3.40
2018-05-31T16:19:26.969Z,4.68
2018-05-31T16:21:54.545Z,3.58
2018-05-31T16:24:22.101Z,4.32
2018-05-31T16:26:49.644Z,5.00
2018-05-31T16:29:17.181Z,4.62
2018-05-31T16:31:44.742Z,2.33
2018-05-31T16:34:12.308Z,2.70
2018-05-31T16:36:39.857Z,5.53
2018-05-31T16:39:07.383Z,3.85
2018-05-31T16:41:34.950Z,5.97
2018-05-31T16:44:03.252Z,4.20
2018-05-31T16:46:30.795Z,3.78
2018-05-31T16:48:59.105Z,3.65
2018-05-31T16:51:26.665Z,3.40
2018-05-31T16:53:54.209Z,3.28
2018-05-31T16:56:27.899Z,3.87
2018-05-31T16:58:55.449Z,3.33
2018-05-31T17:01:23.008Z,4.57
2018-05-31T17:03:50.563Z,5.00
2018-05-31T17:06:18.125Z,4.20
2018-05-31T17:08:45.661Z,4.23
2018-05-31T17:11:13.192Z,3.65
2018-05-31T17:13:40.728Z,4.97
2018-05-31T17:16:08.274Z,4.82
2018-05-31T17:18:35.808Z,4.00
2018-05-31T17:21:03.353Z,3.77
2018-05-31T17:23:30.872Z,5.12
2018-05-31T17:25:58.416Z,4.78
2018-05-31T17:28:25.965Z,5.77
2018-05-31T17:30:53.518Z,6.22
2018-05-31T17:33:21.074Z,4.45
2018-05-31T17:35:48.627Z,6.37
2018-05-31T17:38:16.185Z,5.93
2018-05-31T17:40:43.726Z,8.07
2018-05-31T17:43:11.265Z,9.02
2018-05-31T17:45:39.572Z,5.45
2018-05-31T17:48:07.137Z,4.87
2018-05-31T17:50:34.671Z,3.78
2018-05-31T17:53:02.217Z,5.40
2018-05-31T17:55:30.532Z,5.80
2018-05-31T17:57:58.096Z,6.82
2018-05-31T18:00:25.682Z,5.75
2018-05-31T18:02:53.220Z,2.77
2018-05-31T18:05:20.770Z,4.70
2018-05-31T18:07:48.325Z,4.90
2018-05-31T18:10:15.848Z,5.50
2018-05-31T18:12:44.391Z,5.13
2018-05-31T18:15:11.929Z,5.13
2018-05-31T18:17:54.240Z,4.50
2018-05-31T18:20:21.788Z,7.53
2018-05-31T18:22:49.351Z,5.17
2018-05-31T18:25:16.898Z,3.20
2018-05-31T18:27:44.427Z,5.23
2018-05-31T18:30:12.723Z,5.47
2018-05-31T18:32:40.267Z,3.70
2018-05-31T18:35:07.808Z,6.33
2018-05-31T18:37:36.118Z,4.53
2018-05-31T18:40:03.708Z,3.17
2018-05-31T18:42:31.201Z,5.10
2018-05-31T18:44:58.727Z,4.77
2018-05-31T18:47:26.296Z,4.67
2018-05-31T18:49:53.801Z,4.63
2018-05-31T18:52:21.345Z,6.10
2018-05-31T18:54:49.631Z,5.70
2018-05-31T18:57:17.182Z,4.53
2018-05-31T18:59:45.504Z,4.60
2018-05-31T19:02:13.019Z,6.63
2018-05-31T19:04:41.335Z,5.07
2018-05-31T19:07:08.884Z,5.60
2018-05-31T19:09:36.399Z,7.00
2018-05-31T19:12:04.713Z,5.63
2018-05-31T19:14:32.233Z,3.97
2018-05-31T19:17:00.535Z,7.00
2018-05-31T19:19:33.779Z,6.40
2018-05-31T19:22:01.331Z,5.23
2018-05-31T19:24:34.444Z,4.33
2018-05-31T19:27:01.978Z,5.50
2018-05-31T19:29:29.517Z,5.27
2018-05-31T19:31:57.040Z,4.50
2018-05-31T19:34:25.018Z,6.43
2018-05-31T19:36:58.028Z,8.03
2018-05-31T19:39:25.601Z,5.73
2018-05-31T19:41:53.114Z,6.37
2018-05-31T19:44:26.343Z,6.43
2018-05-31T19:46:53.908Z,6.97
2018-05-31T19:49:21.474Z,8.00
2018-05-31T19:52:09.628Z,4.33
2018-05-31T19:54:37.165Z,6.63
2018-05-31T19:57:04.716Z,7.97
2018-05-31T19:59:37.954Z,5.97
2018-05-31T20:02:11.167Z,9.03
2018-05-31T20:04:38.728Z,5.83
2018-05-31T20:07:07.185Z,6.07
2018-05-31T20:09:34.736Z,7.03
2018-05-31T20:12:02.257Z,7.97
2018-05-31T20:14:29.813Z,5.93
2018-05-31T20:16:57.323Z,8.93
2018-05-31T20:19:30.512Z,5.30
2018-05-31T20:21:58.812Z,6.30
2018-05-31T20:24:26.356Z,8.90
2018-05-31T20:26:54.702Z,8.47
2018-05-31T20:29:22.249Z,6.47
2018-05-31T20:31:49.781Z,9.57
2018-05-31T20:34:17.312Z,6.60
2018-05-31T20:36:46.744Z,6.30
2018-05-31T20:39:14.292Z,9.10
2018-05-31T20:41:41.832Z,7.57
2018-05-31T20:44:09.367Z,5.00
2018-05-31T20:46:36.901Z,6.60
2018-05-31T20:49:04.437Z,9.47
2018-05-31T20:51:31.984Z,5.90
2018-05-31T20:53:59.564Z,7.67
2018-05-31T20:56:27.126Z,6.17
2018-05-31T20:58:54.672Z,6.50
2018-05-31T21:01:35.026Z,5.23
2018-05-31T21:04:21.765Z,7.67
2018-05-31T21:06:50.261Z,5.90
2018-05-31T21:09:17.804Z,7.40
2018-05-31T21:11:45.377Z,8.20
2018-05-31T21:14:12.881Z,5.00
2018-05-31T21:17:01.473Z,6.47
2018-05-31T21:19:29.056Z,7.33
2018-05-31T21:21:56.580Z,8.47
2018-05-31T21:24:24.121Z,10.17
2018-05-31T21:26:51.679Z,8.67
2018-05-31T21:29:19.252Z,8.17
2018-05-31T21:31:46.792Z,6.30
2018-05-31T21:34:14.359Z,7.07
2018-05-31T21:36:41.918Z,7.30
2018-05-31T21:39:09.478Z,5.33
2018-05-31T21:41:37.037Z,6.63
2018-05-31T21:44:04.791Z,4.53
2018-05-31T21:46:32.332Z,4.53
2018-05-31T21:48:59.880Z,4.27
2018-05-31T21:51:27.417Z,9.43
2018-05-31T21:53:54.964Z,5.30
2018-05-31T21:56:22.493Z,4.93
2018-05-31T21:58:50.045Z,5.93
2018-05-31T22:01:17.580Z,4.00
2018-05-31T22:03:45.119Z,4.77
2018-05-31T22:06:12.627Z,4.10
2018-05-31T22:08:40.162Z,5.57
2018-05-31T22:11:07.707Z,3.50
2018-05-31T22:13:35.260Z,6.47
2018-05-31T22:16:03.564Z,4.43
2018-05-31T22:18:31.093Z,5.20
2018-05-31T22:26:57.407Z,7.27
2018-05-31T22:29:24.953Z,4.43
2018-05-31T22:31:52.478Z,6.37
2018-05-31T22:34:20.018Z,3.93
2018-05-31T22:36:47.549Z,5.60
2018-05-31T22:39:15.090Z,5.03
2018-05-31T22:41:42.650Z,6.37
2018-05-31T22:44:10.192Z,5.40
2018-05-31T22:46:37.716Z,7.00
2018-05-31T22:49:06.023Z,6.53
2018-05-31T22:51:33.600Z,6.87
2018-05-31T22:54:01.165Z,7.20
2018-05-31T22:56:28.703Z,9.57
2018-05-31T22:58:56.241Z,6.40
2018-05-31T23:01:24.546Z,11.97
2018-05-31T23:03:52.105Z,8.93
2018-05-31T23:06:19.656Z,9.33
2018-05-31T23:08:47.213Z,8.20
2018-05-31T23:11:14.767Z,8.63
2018-05-31T23:13:42.307Z,12.10
2018-05-31T23:16:09.837Z,10.60
2018-05-31T23:18:37.386Z,9.20
2018-05-31T23:21:04.945Z,9.37
2018-05-31T23:23:32.500Z,10.43
2018-05-31T23:26:00.061Z,8.03
2018-05-31T23:28:27.607Z,12.17
2018-05-31T23:30:55.174Z,12.27
2018-05-31T23:33:22.717Z,14.17
2018-05-31T23:35:50.280Z,13.27
2018-05-31T23:38:17.823Z,18.07
2018-05-31T23:40:45.345Z,18.10
2018-05-31T23:43:12.957Z,9.77
2018-05-31T23:45:40.503Z,17.17
2018-05-31T23:48:08.046Z,12.83
2018-05-31T23:50:35.600Z,11.60
2018-05-31T23:53:03.136Z,16.27
2018-05-31T23:55:31.456Z,13.73
2018-05-31T23:57:58.996Z,11.33
